MMML/MXL METAR and TAF weather

Enter ICAO airport designator
Station Type Date Time Source
MMML METAR 2021/03/01 03:40 UTC NOAA

MMML 010340Z 26006KT 10SM SKC 12/M15 A3026


Station Type Date Time Source
MMML Decoded METAR 2021/03/01 03:40 UTC NOAA

Mexicali International Airport , Mexico (MMML) 32-38N 117-00W
Feb 28, 2021 - 10:40 PM EST / 2021.03.01 0340 UTC
Wind: from the W (260 degrees) at 7 MPH (6 KT):0
Visibility: 10 mile(s):0
Sky conditions: clear
Temperature: 53 F (12 C)
Dew Point: 5 F (-15 C)
Relative Humidity: 13%
Pressure (altimeter): 30.26 in. Hg (1024 hPa)
ob: MMML 010340Z 26006KT 10SM SKC 12/M15 A3026
cycle: 3

Station Type Date Time Source
MMML TAF 2021/03/01 06:38 UTC NOAA

TAF MMML 010330Z 0106/0206 30005KT P6SM SKC
FM011700 33010KT P6SM SKC
FM020300 30005KT P6SM SKC

Example: see airport list